Time;durP1;ratioP1;P1;durP2;ratioP2;P2;SDS_P1;SDS_P2;PMS_P1;PMS_P2;Temp;Humidity;BMP_temperature;BMP_pressure;BME280_temperature;BME280_humidity;BME280_pressure;Samples;Min_cycle;Max_cycle;Signal;HPM_P1;HPM_P2
2023/06/04 00:00:00;;;;;;;7.63;3.45;;;12.10;90.60;;;;;;5007571;28;20437;-65
2023/06/04 00:02:26;;;;;;;3.72;2.60;;;12.00;90.80;;;;;;5008324;28;20184;-62
2023/06/04 00:04:51;;;;;;;4.43;2.63;;;11.90;91.00;;;;;;5013701;28;20049;-62
2023/06/04 00:07:17;;;;;;;5.10;2.90;;;11.80;91.20;;;;;;5013667;28;20038;-68
2023/06/04 00:09:43;;;;;;;4.07;2.58;;;11.80;91.50;;;;;;5003923;28;20435;-65
2023/06/04 00:12:09;;;;;;;4.85;2.90;;;11.70;91.80;;;;;;5012227;28;20044;-65
2023/06/04 00:14:35;;;;;;;4.70;2.80;;;11.70;92.00;;;;;;5013538;28;20042;-62
2023/06/04 00:17:01;;;;;;;5.55;3.00;;;11.70;92.20;;;;;;5012303;28;20099;-62
2023/06/04 00:19:26;;;;;;;5.50;2.80;;;11.70;92.40;;;;;;5002044;28;20514;-62
2023/06/04 00:21:52;;;;;;;4.75;2.70;;;11.60;92.60;;;;;;5010080;28;20488;-63
2023/06/04 00:24:17;;;;;;;8.98;3.05;;;11.50;93.10;;;;;;5009957;28;20153;-63
2023/06/04 00:26:44;;;;;;;4.90;3.05;;;11.40;93.10;;;;;;5001123;28;20039;-63
2023/06/04 00:29:09;;;;;;;6.22;3.10;;;11.40;93.40;;;;;;5011589;28;20041;-65
2023/06/04 00:31:35;;;;;;;6.40;3.10;;;11.40;93.90;;;;;;5014531;28;20063;-65
2023/06/04 00:34:01;;;;;;;5.45;3.00;;;11.40;94.20;;;;;;5007598;28;20039;-64
2023/06/04 00:36:27;;;;;;;5.40;3.72;;;11.30;94.70;;;;;;5008902;28;20033;-62
2023/06/04 00:38:52;;;;;;;6.05;3.40;;;11.30;94.80;;;;;;5012665;28;20040;-65
2023/06/04 00:41:18;;;;;;;7.22;3.40;;;11.20;95.10;;;;;;5009314;28;20041;-65
2023/06/04 00:43:45;;;;;;;5.10;3.00;;;11.10;95.70;;;;;;5012090;28;20037;-65
2023/06/04 00:46:17;;;;;;;5.95;3.20;;;11.10;95.60;;;;;;5013367;28;20042;-65
2023/06/04 00:48:43;;;;;;;7.03;3.33;;;11.10;96.00;;;;;;5014174;28;20044;-65
2023/06/04 00:51:10;;;;;;;8.40;3.85;;;11.10;96.60;;;;;;4999109;28;20511;-66
2023/06/04 00:53:35;;;;;;;6.68;3.47;;;11.10;96.80;;;;;;5009701;28;20556;-65
2023/06/04 00:56:01;;;;;;;7.22;3.88;;;11.10;97.00;;;;;;5014161;28;20124;-65
2023/06/04 00:58:26;;;;;;;5.97;3.40;;;11.00;97.20;;;;;;5003423;28;20392;-62
2023/06/04 01:00:56;;;;;;;7.82;3.97;;;11.00;97.20;;;;;;4994084;28;20038;-64
2023/06/04 01:03:25;;;;;;;6.80;4.00;;;10.90;97.90;;;;;;5012532;28;20045;-61
2023/06/04 01:06:21;;;;;;;8.38;3.90;;;10.80;98.00;;;;;;5012905;28;20404;-62
2023/06/04 01:08:49;;;;;;;7.32;3.83;;;10.80;99.90;;;;;;5001546;28;20034;-64
2023/06/04 01:11:15;;;;;;;7.25;3.88;;;10.80;98.20;;;;;;5014270;28;20092;-64
2023/06/04 01:13:40;;;;;;;9.05;3.70;;;10.70;98.20;;;;;;5013176;28;20046;-62
2023/06/04 01:16:07;;;;;;;6.25;3.63;;;10.70;98.50;;;;;;4995918;28;20092;-62
2023/06/04 01:18:36;;;;;;;7.20;4.22;;;10.70;98.40;;;;;;5011536;28;20070;-64
2023/06/04 01:21:07;;;;;;;6.85;4.10;;;10.70;98.60;;;;;;5014616;28;20527;-65
2023/06/04 01:23:35;;;;;;;6.30;3.92;;;10.70;98.80;;;;;;5005139;28;20042;-65
2023/06/04 01:26:03;;;;;;;7.72;3.97;;;10.60;98.70;;;;;;5013852;28;20072;-64
2023/06/04 01:28:33;;;;;;;8.57;4.32;;;10.50;98.80;;;;;;5012606;28;20052;-65
2023/06/04 01:31:01;;;;;;;7.38;3.85;;;10.40;98.90;;;;;;5008321;28;21180;-65
2023/06/04 01:33:27;;;;;;;8.10;3.97;;;10.50;99.30;;;;;;4997435;28;20532;-62
2023/06/04 01:35:53;;;;;;;8.88;4.18;;;10.50;99.50;;;;;;5008338;28;20108;-62
2023/06/04 01:38:19;;;;;;;7.93;4.10;;;10.50;99.90;;;;;;5012887;28;20038;-65
2023/06/04 01:40:46;;;;;;;10.40;4.45;;;10.50;99.90;;;;;;5003492;28;20041;-65
2023/06/04 01:43:11;;;;;;;7.18;4.53;;;10.50;99.90;;;;;;5010956;28;20053;-64
2023/06/04 01:45:37;;;;;;;12.35;4.95;;;10.50;99.90;;;;;;5013688;28;20084;-62
2023/06/04 01:48:04;;;;;;;9.45;4.70;;;10.50;99.90;;;;;;4999400;28;20041;-64
2023/06/04 01:50:30;;;;;;;7.82;4.40;;;10.50;99.90;;;;;;5002871;28;20046;-64
2023/06/04 01:52:56;;;;;;;10.88;4.53;;;10.50;99.90;;;;;;5011482;28;20042;-64
2023/06/04 01:55:24;;;;;;;7.90;4.28;;;10.50;99.90;;;;;;5013660;28;20073;-63
2023/06/04 01:57:50;;;;;;;7.35;4.53;;;10.30;99.90;;;;;;5000818;28;20106;-62
2023/06/04 02:00:16;;;;;;;10.35;4.80;;;10.20;99.90;;;;;;5011332;28;20117;-65
2023/06/04 02:02:45;;;;;;;7.20;4.60;;;10.10;99.90;;;;;;5011781;28;20042;-65
2023/06/04 02:05:11;;;;;;;8.95;4.53;;;10.10;99.90;;;;;;5005791;28;20100;-62
2023/06/04 02:07:44;;;;;;;7.70;4.68;;;10.00;99.90;;;;;;5004495;28;20069;-65
2023/06/04 02:10:11;;;;;;;10.57;4.68;;;10.00;99.90;;;;;;5011201;28;20080;-65
2023/06/04 02:12:39;;;;;;;6.57;3.90;;;9.90;99.90;;;;;;5011656;28;20037;-62
2023/06/04 02:15:06;;;;;;;7.88;4.40;;;9.90;99.90;;;;;;5003947;28;20030;-64
2023/06/04 02:17:37;;;;;;;10.80;4.30;;;9.90;99.90;;;;;;5005401;28;20038;-62
2023/06/04 02:20:09;;;;;;;7.18;4.50;;;9.80;99.90;;;;;;5011668;28;20112;-63
2023/06/04 02:22:35;;;;;;;8.13;4.18;;;9.80;99.90;;;;;;5006847;28;20038;-65
2023/06/04 02:25:00;;;;;;;10.65;4.35;;;9.70;99.90;;;;;;5008201;28;20096;-64
2023/06/04 02:27:26;;;;;;;6.90;4.13;;;9.60;99.90;;;;;;5012149;28;20395;-62
2023/06/04 02:29:51;;;;;;;9.35;4.93;;;9.60;99.90;;;;;;5006264;28;20058;-62
2023/06/04 02:32:17;;;;;;;9.63;4.57;;;9.60;99.90;;;;;;5012074;28;20026;-62
2023/06/04 02:34:43;;;;;;;13.50;5.10;;;9.70;99.90;;;;;;5011569;28;20450;-62
2023/06/04 02:37:08;;;;;;;10.38;4.50;;;9.80;99.90;;;;;;5011785;28;20037;-65
2023/06/04 02:39:35;;;;;;;13.85;4.50;;;9.80;99.90;;;;;;4997829;28;20030;-65
2023/06/04 02:42:00;;;;;;;7.57;4.90;;;9.80;99.90;;;;;;5001989;28;20042;-64
2023/06/04 02:44:26;;;;;;;10.18;4.55;;;9.80;99.90;;;;;;5011359;28;20064;-63
2023/06/04 02:46:51;;;;;;;10.63;4.50;;;9.80;99.90;;;;;;5001505;28;20086;-64
2023/06/04 02:49:18;;;;;;;8.27;4.25;;;9.80;99.90;;;;;;5009639;28;20038;-61
2023/06/04 02:51:43;;;;;;;11.70;4.75;;;9.80;99.90;;;;;;5011519;28;20042;-62
2023/06/04 02:54:09;;;;;;;10.55;4.45;;;9.80;99.90;;;;;;5002603;28;20040;-62
2023/06/04 02:56:36;;;;;;;15.27;4.75;;;9.80;99.90;;;;;;4998335;28;20377;-65
2023/06/04 02:59:03;;;;;;;20.40;4.70;;;9.80;99.90;;;;;;5008689;28;20096;-64
2023/06/04 03:01:29;;;;;;;9.88;4.78;;;9.80;99.90;;;;;;5011422;28;20392;-62
2023/06/04 03:03:57;;;;;;;10.52;4.40;;;9.80;99.90;;;;;;5011590;28;20046;-62
2023/06/04 03:06:23;;;;;;;13.82;5.32;;;9.70;99.90;;;;;;4999711;28;20046;-64
2023/06/04 03:08:50;;;;;;;13.95;5.20;;;9.70;99.90;;;;;;5007874;28;20037;-62
2023/06/04 03:11:20;;;;;;;10.23;5.05;;;9.60;99.90;;;;;;5008818;28;20053;-63
2023/06/04 03:13:46;;;;;;;12.37;4.73;;;9.60;99.90;;;;;;5005576;28;20041;-65
2023/06/04 03:16:12;;;;;;;12.77;5.50;;;9.60;99.90;;;;;;5012100;28;20080;-65
2023/06/04 03:18:41;;;;;;;12.23;4.88;;;9.60;99.90;;;;;;5011805;28;20069;-65
2023/06/04 03:21:08;;;;;;;11.00;5.10;;;9.60;99.90;;;;;;5007827;28;20036;-64
2023/06/04 03:23:34;;;;;;;11.20;5.13;;;9.60;99.90;;;;;;5013185;28;20480;-62
2023/06/04 03:26:04;;;;;;;16.08;4.82;;;9.50;99.90;;;;;;5014325;28;20559;-62
2023/06/04 03:28:31;;;;;;;10.45;4.68;;;9.50;99.90;;;;;;5006553;28;20493;-65
2023/06/04 03:30:56;;;;;;;11.43;5.40;;;9.50;99.90;;;;;;5005055;28;20492;-62
2023/06/04 03:33:22;;;;;;;12.90;5.25;;;9.50;99.90;;;;;;5014318;28;20044;-62
2023/06/04 03:35:48;;;;;;;10.50;4.85;;;9.40;99.90;;;;;;5003740;28;20439;-64
2023/06/04 03:38:15;;;;;;;10.48;5.50;;;9.40;99.90;;;;;;5013458;28;20042;-64
2023/06/04 03:40:40;;;;;;;13.80;5.18;;;9.40;99.90;;;;;;5014696;28;20531;-65
2023/06/04 03:43:06;;;;;;;12.68;5.95;;;9.40;99.90;;;;;;5011056;28;20042;-65
2023/06/04 03:45:32;;;;;;;9.18;5.18;;;9.50;99.90;;;;;;4996565;28;20128;-62
2023/06/04 03:47:57;;;;;;;10.30;5.50;;;9.40;99.90;;;;;;5008512;28;20496;-64
2023/06/04 03:50:23;;;;;;;13.98;5.70;;;9.50;99.90;;;;;;5013918;28;20108;-65
2023/06/04 03:52:49;;;;;;;12.73;5.72;;;9.50;99.90;;;;;;5014338;28;20030;-65
2023/06/04 03:55:14;;;;;;;11.38;6.00;;;9.50;99.90;;;;;;4996810;28;20034;-65
2023/06/04 03:57:40;;;;;;;12.73;5.72;;;9.60;99.90;;;;;;5008174;28;20064;-65
2023/06/04 04:00:08;;;;;;;13.90;5.05;;;9.60;99.90;;;;;;5013980;28;20121;-62
2023/06/04 04:02:34;;;;;;;12.18;5.45;;;9.50;99.90;;;;;;5003706;28;20504;-63
2023/06/04 04:04:59;;;;;;;13.32;5.63;;;9.50;99.90;;;;;;5007168;28;20072;-64
2023/06/04 04:07:25;;;;;;;13.13;5.47;;;9.60;99.90;;;;;;5014538;28;20070;-62
2023/06/04 04:09:53;;;;;;;11.38;5.68;;;9.60;99.90;;;;;;5009464;28;20045;-62
2023/06/04 04:12:19;;;;;;;11.07;5.82;;;9.70;99.90;;;;;;5011263;28;20049;-61
2023/06/04 04:14:46;;;;;;;9.85;5.90;;;9.70;99.90;;;;;;5011951;28;20038;-62
2023/06/04 04:17:12;;;;;;;11.40;5.75;;;9.80;99.90;;;;;;5014096;28;20419;-65
2023/06/04 04:19:38;;;;;;;17.05;6.60;;;9.80;99.90;;;;;;5005009;28;20038;-65
2023/06/04 04:22:03;;;;;;;15.20;6.38;;;9.90;99.90;;;;;;5004085;28;20288;-62
2023/06/04 04:24:29;;;;;;;12.93;6.68;;;10.00;99.90;;;;;;5012999;28;20057;-64
2023/06/04 04:26:55;;;;;;;15.77;6.90;;;10.00;99.90;;;;;;5008403;28;20042;-63
2023/06/04 04:29:24;;;;;;;15.57;6.68;;;10.10;99.90;;;;;;5003775;28;20111;-65
2023/06/04 04:31:56;;;;;;;16.45;6.43;;;10.20;99.90;;;;;;5013157;28;20034;-65
2023/06/04 04:34:25;;;;;;;13.60;7.18;;;10.30;99.90;;;;;;5013374;28;20104;-62
2023/06/04 04:36:54;;;;;;;16.02;7.28;;;10.40;99.90;;;;;;4997238;28;20049;-63
2023/06/04 04:39:22;;;;;;;13.32;6.82;;;10.50;99.90;;;;;;5011995;28;20029;-62
2023/06/04 04:41:48;;;;;;;18.73;7.55;;;10.60;99.90;;;;;;5012967;28;20049;-62
2023/06/04 04:44:14;;;;;;;17.50;6.65;;;10.70;99.90;;;;;;5013030;28;20068;-63
2023/06/04 04:46:40;;;;;;;12.35;6.82;;;10.80;99.90;;;;;;4994772;28;20038;-64
2023/06/04 04:49:05;;;;;;;14.60;6.93;;;10.80;99.90;;;;;;4988762;28;20577;-62
2023/06/04 04:51:31;;;;;;;17.40;7.35;;;10.90;99.90;;;;;;4999570;28;20037;-64
2023/06/04 04:54:00;;;;;;;14.00;6.63;;;11.00;99.90;;;;;;4998966;28;20034;-62
2023/06/04 04:56:26;;;;;;;17.42;7.78;;;11.10;99.90;;;;;;5017583;28;20046;-63
2023/06/04 04:58:52;;;;;;;16.23;7.30;;;11.20;99.90;;;;;;5022571;28;20053;-63
2023/06/04 05:01:17;;;;;;;12.20;6.80;;;11.20;99.90;;;;;;5015359;28;20035;-63
2023/06/04 05:03:43;;;;;;;18.17;7.00;;;11.20;99.90;;;;;;5015423;28;20126;-62
2023/06/04 05:06:09;;;;;;;13.38;6.85;;;11.30;99.90;;;;;;5017549;28;20033;-63
2023/06/04 05:08:35;;;;;;;14.18;6.85;;;11.40;99.90;;;;;;5017369;28;20029;-62
2023/06/04 05:11:00;;;;;;;12.88;7.00;;;11.50;99.90;;;;;;5015139;28;20460;-62
2023/06/04 05:13:26;;;;;;;16.63;7.30;;;11.60;99.90;;;;;;4996381;28;20041;-63
2023/06/04 05:15:54;;;;;;;15.25;6.72;;;11.70;99.90;;;;;;4998173;28;20068;-63
2023/06/04 05:18:20;;;;;;;15.57;7.47;;;11.70;99.90;;;;;;5003455;28;20128;-63
2023/06/04 05:20:46;;;;;;;18.60;8.23;;;11.80;99.90;;;;;;5010004;28;20046;-62
2023/06/04 05:23:12;;;;;;;15.65;7.22;;;11.80;99.90;;;;;;5012339;28;20037;-62
2023/06/04 05:25:38;;;;;;;16.63;7.53;;;11.90;99.90;;;;;;5007325;28;20040;-64
2023/06/04 05:28:06;;;;;;;16.40;7.03;;;12.00;99.90;;;;;;5003551;28;20041;-63
2023/06/04 05:30:33;;;;;;;14.18;6.88;;;12.10;99.90;;;;;;4999167;28;20048;-63
2023/06/04 05:32:59;;;;;;;13.02;7.00;;;12.10;99.90;;;;;;5008896;28;20069;-63
2023/06/04 05:35:25;;;;;;;18.08;7.75;;;12.20;99.90;;;;;;5009780;28;20084;-63
2023/06/04 05:37:56;;;;;;;14.90;7.05;;;12.30;99.90;;;;;;5004280;28;21033;-64
2023/06/04 05:40:22;;;;;;;18.08;7.60;;;12.40;99.90;;;;;;5002364;28;20287;-62
2023/06/04 05:42:48;;;;;;;17.50;7.68;;;12.50;99.90;;;;;;4996409;28;20039;-62
2023/06/04 05:45:14;;;;;;;15.35;7.57;;;12.60;99.90;;;;;;5005093;28;20742;-63
2023/06/04 05:47:40;;;;;;;13.00;7.13;;;12.60;99.90;;;;;;4995133;28;20057;-62
2023/06/04 05:50:06;;;;;;;17.75;7.82;;;12.70;99.90;;;;;;5006340;28;20037;-63
2023/06/04 05:52:33;;;;;;;14.90;7.35;;;12.80;99.90;;;;;;5011352;28;20073;-62
2023/06/04 05:54:59;;;;;;;15.43;8.40;;;12.80;99.90;;;;;;5005792;28;20038;-62
2023/06/04 05:57:25;;;;;;;16.17;7.43;;;12.90;99.90;;;;;;4997961;28;20026;-62
2023/06/04 05:59:50;;;;;;;15.52;7.00;;;13.00;99.90;;;;;;5005351;28;20045;-62
2023/06/04 06:02:16;;;;;;;15.25;7.38;;;13.00;99.90;;;;;;5005510;28;20061;-62
2023/06/04 06:04:42;;;;;;;12.38;7.72;;;13.10;99.90;;;;;;5010148;28;20038;-63
2023/06/04 06:07:07;;;;;;;22.33;7.55;;;13.20;99.90;;;;;;5005566;28;20029;-63
2023/06/04 06:09:33;;;;;;;16.77;8.18;;;13.30;99.90;;;;;;5007105;28;20065;-63
2023/06/04 06:11:58;;;;;;;12.60;7.25;;;13.40;99.90;;;;;;5009783;28;20484;-63
2023/06/04 06:14:24;;;;;;;14.10;7.07;;;13.50;99.90;;;;;;5012495;28;20400;-64
2023/06/04 06:16:50;;;;;;;12.73;7.35;;;13.50;99.90;;;;;;5008441;28;20026;-63
2023/06/04 06:19:16;;;;;;;12.13;6.68;;;13.60;99.90;;;;;;5015743;28;20365;-63
2023/06/04 06:21:42;;;;;;;16.95;7.38;;;13.70;99.90;;;;;;5016945;28;20042;-63
2023/06/04 06:24:08;;;;;;;15.52;7.05;;;13.70;99.90;;;;;;5002475;28;20095;-64
2023/06/04 06:26:34;;;;;;;14.80;7.13;;;13.80;99.90;;;;;;4995360;28;20059;-64
2023/06/04 06:28:59;;;;;;;14.65;6.88;;;13.90;99.90;;;;;;5006923;28;20038;-64
2023/06/04 06:31:25;;;;;;;16.60;7.47;;;14.00;99.90;;;;;;5007277;28;20168;-64
2023/06/04 06:33:51;;;;;;;16.33;6.82;;;14.00;99.90;;;;;;4998593;28;20121;-64
2023/06/04 06:36:18;;;;;;;12.98;6.80;;;14.10;99.90;;;;;;5011249;28;20451;-63
2023/06/04 06:38:47;;;;;;;14.15;6.85;;;14.20;99.90;;;;;;5011126;28;20555;-64
2023/06/04 06:41:13;;;;;;;11.15;6.72;;;14.30;99.90;;;;;;5006410;28;20495;-64
2023/06/04 06:43:39;;;;;;;13.02;6.07;;;14.30;99.90;;;;;;5011088;28;20034;-63
2023/06/04 06:46:05;;;;;;;11.45;6.13;;;14.40;99.90;;;;;;5010888;28;20073;-64
2023/06/04 06:48:30;;;;;;;12.15;6.18;;;14.50;99.90;;;;;;5004126;28;20160;-63
2023/06/04 06:50:56;;;;;;;11.18;6.03;;;14.50;99.90;;;;;;4993642;28;20121;-64
2023/06/04 06:53:22;;;;;;;12.88;5.95;;;14.60;99.90;;;;;;5010989;28;20042;-64
2023/06/04 06:55:47;;;;;;;12.55;5.90;;;14.60;99.90;;;;;;5008947;28;20052;-64
2023/06/04 06:58:13;;;;;;;10.55;5.60;;;14.70;99.90;;;;;;5003245;28;20046;-63
2023/06/04 07:00:39;;;;;;;11.32;4.95;;;14.80;99.90;;;;;;5014578;28;20117;-63
2023/06/04 07:03:04;;;;;;;14.68;5.50;;;14.80;99.90;;;;;;5019764;28;20476;-63
2023/06/04 07:05:30;;;;;;;9.65;5.28;;;14.90;99.90;;;;;;5014530;28;20053;-63
2023/06/04 07:07:57;;;;;;;10.65;4.10;;;15.00;99.90;;;;;;5013503;28;20026;-64
2023/06/04 07:10:23;;;;;;;7.90;4.50;;;15.10;99.90;;;;;;5002832;28;20424;-64
2023/06/04 07:12:48;;;;;;;9.70;4.43;;;15.20;99.90;;;;;;5004645;28;20033;-65
2023/06/04 07:15:14;;;;;;;9.38;4.60;;;15.30;99.90;;;;;;5013851;28;20052;-65
2023/06/04 07:17:40;;;;;;;10.50;4.15;;;15.30;99.90;;;;;;5014220;28;20045;-64
2023/06/04 07:20:07;;;;;;;8.80;3.58;;;15.40;99.90;;;;;;5009387;28;20180;-64
2023/06/04 07:22:33;;;;;;;6.85;3.67;;;15.40;99.90;;;;;;5008806;28;20038;-64
2023/06/04 07:24:59;;;;;;;7.10;3.47;;;15.50;99.90;;;;;;5020450;28;20407;-64
2023/06/04 07:27:26;;;;;;;7.88;3.78;;;15.50;99.90;;;;;;5022286;28;20500;-63
2023/06/04 07:29:52;;;;;;;8.02;3.88;;;15.60;99.90;;;;;;5013969;28;20045;-64
2023/06/04 07:32:17;;;;;;;8.38;3.85;;;15.70;99.90;;;;;;5013038;28;20100;-64
2023/06/04 07:34:43;;;;;;;9.07;3.90;;;15.80;99.90;;;;;;5010327;28;20129;-64
2023/06/04 07:37:09;;;;;;;9.30;3.55;;;15.80;99.90;;;;;;5014084;28;20408;-63
2023/06/04 07:39:35;;;;;;;8.40;3.83;;;15.90;99.90;;;;;;5016502;28;20511;-65
2023/06/04 07:42:00;;;;;;;9.55;3.90;;;16.00;99.90;;;;;;5014965;28;20034;-64
2023/06/04 07:44:26;;;;;;;6.53;3.08;;;16.10;99.90;;;;;;5023367;28;20033;-64
2023/06/04 07:46:52;;;;;;;8.68;3.30;;;16.20;99.90;;;;;;5017893;28;20041;-64
2023/06/04 07:49:17;;;;;;;8.38;3.28;;;16.20;99.90;;;;;;5018236;28;20424;-64
2023/06/04 07:51:43;;;;;;;7.93;3.15;;;16.30;99.90;;;;;;5025092;28;20115;-63
2023/06/04 07:54:10;;;;;;;7.20;2.80;;;16.30;99.90;;;;;;5034054;28;20496;-63
2023/06/04 07:56:35;;;;;;;8.55;3.40;;;16.40;99.90;;;;;;4997751;28;20042;-65
2023/06/04 07:59:01;;;;;;;6.57;2.80;;;16.40;99.90;;;;;;5009456;28;20049;-64
2023/06/04 08:01:27;;;;;;;6.78;2.95;;;16.50;99.90;;;;;;5013319;28;20597;-64
2023/06/04 08:03:53;;;;;;;5.68;3.10;;;16.50;99.90;;;;;;5014004;28;20049;-63
2023/06/04 08:06:18;;;;;;;7.70;2.80;;;16.60;99.90;;;;;;5000475;28;20088;-63
2023/06/04 08:08:45;;;;;;;5.10;2.53;;;16.70;99.90;;;;;;5001281;28;20476;-62
2023/06/04 08:11:15;;;;;;;7.15;3.10;;;16.70;99.90;;;;;;5014686;28;20511;-63
2023/06/04 08:13:40;;;;;;;4.93;2.25;;;16.80;99.90;;;;;;4997392;28;20046;-63
2023/06/04 08:16:06;;;;;;;6.97;2.47;;;16.90;99.90;;;;;;5011613;28;20044;-64
2023/06/04 08:18:31;;;;;;;4.72;2.42;;;17.00;99.90;;;;;;5013451;28;20041;-63
2023/06/04 08:20:57;;;;;;;7.45;2.80;;;17.10;99.90;;;;;;5007443;28;20121;-64
2023/06/04 08:23:23;;;;;;;6.60;2.85;;;17.20;99.90;;;;;;5009311;28;20038;-63
2023/06/04 08:25:48;;;;;;;5.72;2.60;;;17.20;99.90;;;;;;5013150;28;20435;-64
2023/06/04 08:28:15;;;;;;;7.32;2.70;;;17.40;99.80;;;;;;5009498;28;20404;-64
2023/06/04 08:30:42;;;;;;;5.32;2.28;;;17.40;99.40;;;;;;5000439;28;20053;-63
2023/06/04 08:33:08;;;;;;;9.32;2.55;;;17.40;99.20;;;;;;5011730;28;20034;-63
2023/06/04 08:35:33;;;;;;;6.97;2.55;;;17.50;99.60;;;;;;5013486;28;20407;-64
2023/06/04 08:37:59;;;;;;;8.23;2.90;;;17.60;99.80;;;;;;5001106;28;20065;-63
2023/06/04 08:40:25;;;;;;;5.32;2.38;;;17.60;99.70;;;;;;5012909;28;20095;-64
2023/06/04 08:42:57;;;;;;;5.47;2.42;;;17.70;99.70;;;;;;5011503;28;20471;-65
2023/06/04 08:45:25;;;;;;;4.40;2.50;;;17.80;99.70;;;;;;5007092;28;20030;-63
2023/06/04 08:47:51;;;;;;;7.25;2.72;;;17.90;99.80;;;;;;5009112;28;20034;-62
2023/06/04 08:50:19;;;;;;;5.18;2.00;;;17.90;99.40;;;;;;5012819;28;20107;-63
2023/06/04 08:52:44;;;;;;;7.18;2.55;;;18.00;99.10;;;;;;5001637;28;20089;-63
2023/06/04 08:55:14;;;;;;;5.82;2.40;;;18.10;98.90;;;;;;5006876;28;20034;-62
2023/06/04 08:57:40;;;;;;;8.43;2.38;;;18.10;96.40;;;;;;5011448;28;20479;-64
2023/06/04 09:00:08;;;;;;;8.30;2.50;;;18.30;98.00;;;;;;5012328;28;20520;-64
2023/06/04 09:02:39;;;;;;;6.03;2.90;;;18.30;97.80;;;;;;5005426;28;20038;-63
2023/06/04 09:05:08;;;;;;;;;;;18.40;97.70;;;;;;5004243;28;20041;-62
2023/06/04 09:07:36;;;;;;;4.70;2.35;;;18.50;97.70;;;;;;5009843;28;19939;-62
2023/06/04 09:10:04;;;;;;;7.32;2.83;;;18.60;98.20;;;;;;5011673;28;20037;-63
2023/06/04 09:12:31;;;;;;;10.18;2.42;;;18.70;97.90;;;;;;5012651;28;20080;-62
2023/06/04 09:14:56;;;;;;;5.25;2.55;;;18.80;97.50;;;;;;4989704;28;20868;-65
2023/06/04 09:17:23;;;;;;;7.70;2.20;;;18.90;96.60;;;;;;5005067;28;20087;-63
2023/06/04 09:19:50;;;;;;;11.32;2.65;;;19.00;96.70;;;;;;5005251;28;20484;-63
2023/06/04 09:22:15;;;;;;;6.47;2.50;;;19.10;97.00;;;;;;5010886;28;20044;-63
2023/06/04 09:24:45;;;;;;;8.60;2.55;;;19.10;96.50;;;;;;5010897;28;20038;-62
2023/06/04 09:27:16;;;;;;;6.00;2.30;;;19.20;96.80;;;;;;5000145;28;20046;-62
2023/06/04 09:29:53;;;;;;;4.78;2.30;;;19.20;96.80;;;;;;5010004;28;20041;-63
2023/06/04 09:32:23;;;;;;;5.18;2.17;;;19.30;96.70;;;;;;4992757;28;20092;-63
2023/06/04 09:34:49;;;;;;;6.75;2.10;;;19.30;96.10;;;;;;4988846;28;20362;-63
2023/06/04 09:37:18;;;;;;;6.07;2.50;;;19.40;96.60;;;;;;5004936;28;20794;-64
2023/06/04 09:39:54;;;;;;;10.18;2.72;;;19.40;96.60;;;;;;5011817;28;20064;-64
2023/06/04 09:42:21;;;;;;;5.32;2.50;;;19.50;96.70;;;;;;5012344;28;20030;-64
2023/06/04 09:44:47;;;;;;;5.15;2.40;;;19.60;96.20;;;;;;5006254;28;20129;-64
2023/06/04 09:47:13;;;;;;;3.60;2.03;;;19.70;96.10;;;;;;5002991;28;20129;-65
2023/06/04 09:49:50;;;;;;;6.90;2.47;;;19.80;95.30;;;;;;5011097;28;20400;-64
2023/06/04 09:52:16;;;;;;;5.50;2.15;;;19.90;95.40;;;;;;5005643;28;20030;-66
2023/06/04 09:54:43;;;;;;;5.72;2.42;;;19.80;95.20;;;;;;5007302;28;20025;-65
2023/06/04 09:57:16;;;;;;;4.82;2.20;;;19.90;95.20;;;;;;5011573;28;20034;-65
2023/06/04 09:59:47;;;;;;;5.97;2.17;;;19.90;95.00;;;;;;5008530;28;20116;-66
2023/06/04 10:02:13;;;;;;;5.25;2.13;;;19.90;95.00;;;;;;5006586;28;20048;-65
2023/06/04 10:04:42;;;;;;;4.38;2.40;;;19.90;94.90;;;;;;5011780;28;20049;-65
2023/06/04 10:07:10;;;;;;;7.78;2.47;;;20.00;95.00;;;;;;5011882;28;20057;-65
2023/06/04 10:09:45;;;;;;;5.68;2.28;;;20.10;94.90;;;;;;5039322;22;20129;-64
2023/06/04 10:12:15;;;;;;;5.45;2.35;;;20.20;94.60;;;;;;5002897;28;20510;-66
2023/06/04 10:14:52;;;;;;;5.38;2.17;;;20.20;94.70;;;;;;5011068;28;20041;-64
2023/06/04 10:17:21;;;;;;;5.03;2.08;;;20.30;94.70;;;;;;5011458;28;20427;-64
2023/06/04 10:19:48;;;;;;;3.53;2.08;;;20.50;94.80;;;;;;5011412;28;20492;-64
2023/06/04 10:22:14;;;;;;;4.72;1.92;;;20.40;93.80;;;;;;4998263;28;20034;-64
2023/06/04 10:24:40;;;;;;;7.43;2.15;;;20.40;93.90;;;;;;5008751;28;20037;-61
2023/06/04 10:27:10;;;;;;;6.82;2.20;;;20.40;94.00;;;;;;5007728;28;20480;-65
2023/06/04 10:29:36;;;;;;;4.60;2.13;;;20.50;93.60;;;;;;5014649;28;20075;-65
2023/06/04 10:32:02;;;;;;;6.57;2.63;;;20.50;92.50;;;;;;5011182;28;20046;-67
2023/06/04 10:34:28;;;;;;;7.32;3.25;;;20.70;91.30;;;;;;5015950;28;20348;-67
2023/06/04 10:36:55;;;;;;;4.05;2.17;;;20.70;92.30;;;;;;5002444;28;20445;-68
2023/06/04 10:39:35;;;;;;;3.70;2.13;;;20.80;92.30;;;;;;5010419;28;20030;-67
2023/06/04 10:42:05;;;;;;;6.50;1.95;;;20.90;89.70;;;;;;5007559;28;20529;-68
2023/06/04 10:44:32;;;;;;;5.45;2.10;;;21.00;90.70;;;;;;5006593;28;20120;-67
2023/06/04 10:46:58;;;;;;;3.88;2.08;;;21.10;91.40;;;;;;5015042;28;20029;-67
2023/06/04 10:49:28;;;;;;;6.00;1.90;;;21.20;91.20;;;;;;5015076;28;20410;-68
2023/06/04 10:52:02;;;;;;;4.18;1.95;;;21.30;88.80;;;;;;5001014;28;20111;-67
2023/06/04 10:54:28;;;;;;;5.03;2.03;;;21.40;90.50;;;;;;5015193;28;20046;-68
2023/06/04 10:56:55;;;;;;;6.18;2.42;;;21.50;90.00;;;;;;5015770;28;20034;-67
2023/06/04 10:59:21;;;;;;;5.50;2.20;;;21.50;90.10;;;;;;5008196;28;20592;-67
2023/06/04 11:01:47;;;;;;;5.47;2.05;;;21.50;90.20;;;;;;5014923;28;20060;-68
2023/06/04 11:04:26;;;;;;;4.03;2.05;;;21.60;90.70;;;;;;5014792;28;20384;-67
2023/06/04 11:07:08;;;;;;;3.60;2.10;;;21.60;88.00;;;;;;5023330;28;20129;-69
2023/06/04 11:09:35;;;;;;;5.90;1.98;;;21.60;85.20;;;;;;5007181;28;20030;-67
2023/06/04 11:12:01;;;;;;;7.82;3.33;;;21.80;88.50;;;;;;5012001;28;20116;-70
2023/06/04 11:14:27;;;;;;;4.00;2.00;;;22.00;88.70;;;;;;5014488;28;20117;-69
2023/06/04 11:16:53;;;;;;;5.25;2.10;;;22.00;88.70;;;;;;4999873;28;20132;-67
2023/06/04 11:19:18;;;;;;;3.47;2.20;;;22.00;88.50;;;;;;4995050;28;20380;-69
2023/06/04 11:21:45;;;;;;;6.53;2.00;;;22.10;88.30;;;;;;5007781;28;20042;-69
2023/06/04 11:24:12;;;;;;;5.65;2.30;;;22.20;88.50;;;;;;5012638;28;20045;-66
2023/06/04 11:26:38;;;;;;;6.38;1.92;;;22.20;88.90;;;;;;5007929;28;20599;-67
2023/06/04 11:29:11;;;;;;;6.32;2.13;;;22.10;87.90;;;;;;4998268;28;20047;-66
2023/06/04 11:31:44;;;;;;;4.45;1.98;;;21.90;85.70;;;;;;5008630;28;20038;-67
2023/06/04 11:34:11;;;;;;;4.13;2.00;;;21.80;86.40;;;;;;5004449;28;20038;-68
2023/06/04 11:36:37;;;;;;;3.95;2.10;;;21.70;87.10;;;;;;5006733;28;20180;-66
2023/06/04 11:39:06;;;;;;;5.70;2.10;;;21.70;89.10;;;;;;5000754;28;20058;-67
2023/06/04 11:41:35;;;;;;;6.68;2.30;;;21.90;88.30;;;;;;5013548;28;20116;-67
2023/06/04 11:44:05;;;;;;;5.30;2.00;;;22.20;88.60;;;;;;5012233;28;20037;-66
2023/06/04 11:46:35;;;;;;;5.22;2.08;;;22.20;86.30;;;;;;5003897;28;20041;-67
2023/06/04 11:49:02;;;;;;;4.13;2.00;;;22.40;87.20;;;;;;5002294;28;20026;-67
2023/06/04 11:51:27;;;;;;;9.23;2.10;;;22.40;87.20;;;;;;5000493;28;20043;-67
2023/06/04 11:53:53;;;;;;;4.22;2.30;;;22.50;85.60;;;;;;5013999;28;20038;-66
2023/06/04 11:56:19;;;;;;;5.55;2.50;;;22.50;85.90;;;;;;5008954;28;20033;-66
2023/06/04 11:58:46;;;;;;;6.45;2.20;;;22.70;86.10;;;;;;5010521;28;20037;-68
2023/06/04 12:01:13;;;;;;;4.72;2.28;;;22.50;85.00;;;;;;5013451;28;20049;-66
2023/06/04 12:03:42;;;;;;;4.68;1.98;;;22.40;84.10;;;;;;5013952;28;20488;-67
2023/06/04 12:06:11;;;;;;;5.22;2.00;;;22.40;84.00;;;;;;5009713;28;20471;-67
2023/06/04 12:08:46;;;;;;;3.78;2.08;;;22.40;82.60;;;;;;5016492;28;20034;-67
2023/06/04 12:11:26;;;;;;;6.20;2.20;;;22.50;85.50;;;;;;5032182;28;20049;-66
2023/06/04 12:13:54;;;;;;;5.30;2.00;;;22.70;86.10;;;;;;5033586;28;20037;-68
2023/06/04 12:16:20;;;;;;;5.13;2.20;;;22.80;84.50;;;;;;5008756;28;20065;-67
2023/06/04 12:18:45;;;;;;;6.10;2.25;;;22.60;84.10;;;;;;5017918;28;20068;-68
2023/06/04 12:21:27;;;;;;;4.00;2.17;;;22.80;85.20;;;;;;5014298;28;20046;-67
2023/06/04 12:24:10;;;;;;;5.68;2.40;;;23.00;84.00;;;;;;5007748;28;20050;-66
2023/06/04 12:26:43;;;;;;;6.13;2.42;;;23.10;81.40;;;;;;5017882;28;20045;-67
2023/06/04 12:29:10;;;;;;;5.68;2.05;;;23.20;83.20;;;;;;5013108;28;20037;-67
2023/06/04 12:31:46;;;;;;;4.95;2.25;;;23.20;84.20;;;;;;5008790;28;20046;-67
2023/06/04 12:34:13;;;;;;;4.75;2.35;;;23.20;83.90;;;;;;5008376;28;20042;-67
2023/06/04 12:36:39;;;;;;;5.25;2.20;;;23.30;80.00;;;;;;5013083;28;20515;-67
2023/06/04 12:39:07;;;;;;;4.63;2.30;;;23.40;83.00;;;;;;5004050;28;20035;-67
2023/06/04 12:41:33;;;;;;;4.03;1.98;;;23.50;83.10;;;;;;4999755;28;20121;-65
2023/06/04 12:44:00;;;;;;;5.40;2.03;;;23.50;81.80;;;;;;5012750;28;20033;-68